Time;durP1;ratioP1;P1;durP2;ratioP2;P2;SDS_P1;SDS_P2;PMS_P1;PMS_P2;Temp;Humidity;BMP_temperature;BMP_pressure;BME280_temperature;BME280_humidity;BME280_pressure;Samples;Min_cycle;Max_cycle;Signal;HPM_P1;HPM_P2
2021/12/23 00:00:08;;;;;;;91.00;36.17;;;-2.20;99.90;;;;;;5039853;28;20021;-82
2021/12/23 00:02:35;;;;;;;88.22;34.88;;;-2.20;99.90;;;;;;5033520;28;20042;-82
2021/12/23 00:05:00;;;;;;;92.25;35.65;;;-2.10;99.90;;;;;;5029378;28;20374;-85
2021/12/23 00:07:26;;;;;;;96.40;33.95;;;-2.10;99.90;;;;;;5025310;28;20109;-84
2021/12/23 00:10:04;;;;;;;91.82;36.65;;;-2.10;99.90;;;;;;5029525;28;20082;-86
2021/12/23 00:12:31;;;;;;;88.50;34.50;;;-2.10;99.90;;;;;;5035863;28;20034;-84
2021/12/23 00:14:57;;;;;;;99.78;38.30;;;-2.10;99.90;;;;;;5035952;28;20017;-85
2021/12/23 00:17:41;;;;;;;92.07;36.35;;;-2.10;99.90;;;;;;5034956;28;20067;-85
2021/12/23 00:25:20;;;;;;;96.65;37.20;;;-2.20;99.90;;;;;;5030690;28;20034;-89
2021/12/23 00:27:46;;;;;;;81.18;32.70;;;-2.20;99.90;;;;;;5034835;28;20474;-86
2021/12/23 00:30:12;;;;;;;82.70;34.78;;;-2.20;99.90;;;;;;5011172;28;20060;-87
2021/12/23 00:32:38;;;;;;;87.28;34.20;;;-2.20;99.90;;;;;;5015005;28;20481;-88
2021/12/23 00:35:07;;;;;;;87.80;34.10;;;-2.20;99.90;;;;;;5031803;28;20044;-87
2021/12/23 00:37:37;;;;;;;85.47;33.83;;;-2.20;99.90;;;;;;5033090;28;20033;-86
2021/12/23 00:40:04;;;;;;;86.70;33.58;;;-2.20;99.90;;;;;;5026719;28;20026;-86
2021/12/23 00:42:31;;;;;;;86.68;34.05;;;-2.10;99.90;;;;;;5024171;28;20022;-87
2021/12/23 00:44:58;;;;;;;81.85;32.80;;;-2.10;99.90;;;;;;5024314;28;20036;-87
2021/12/23 00:47:24;;;;;;;76.60;32.65;;;-2.20;99.90;;;;;;5027531;28;20033;-86
2021/12/23 00:49:49;;;;;;;84.75;34.15;;;-2.20;99.90;;;;;;5027858;28;20022;-86
2021/12/23 00:52:18;;;;;;;80.82;32.50;;;-2.10;99.90;;;;;;5026233;28;20033;-88
2021/12/23 00:54:44;;;;;;;74.43;30.95;;;-2.10;99.90;;;;;;5008778;28;20036;-87
2021/12/23 00:57:10;;;;;;;82.65;32.58;;;-2.10;99.90;;;;;;5008791;28;20030;-88
2021/12/23 00:59:37;;;;;;;81.38;31.88;;;-2.10;99.90;;;;;;5023863;28;20034;-88
2021/12/23 01:02:07;;;;;;;83.25;32.53;;;-2.10;99.90;;;;;;5025729;28;20030;-86
2021/12/23 01:04:34;;;;;;;82.13;33.15;;;-2.10;99.90;;;;;;5027803;28;20038;-88
2021/12/23 01:07:01;;;;;;;85.18;33.70;;;-2.10;99.90;;;;;;5015722;28;20022;-86
2021/12/23 01:09:26;;;;;;;83.97;32.70;;;-2.20;99.90;;;;;;5020799;28;20057;-88
2021/12/23 01:11:54;;;;;;;87.65;34.17;;;-2.10;99.90;;;;;;5038728;28;20029;-89
2021/12/23 01:17:10;;;;;;;85.07;31.77;;;-2.10;99.90;;;;;;5038553;28;20053;-86
2021/12/23 01:19:39;;;;;;;84.45;33.17;;;-2.20;99.90;;;;;;5026603;28;20086;-88
2021/12/23 01:22:09;;;;;;;78.40;33.17;;;-2.20;99.90;;;;;;5007102;28;20440;-87
2021/12/23 01:24:34;;;;;;;85.53;33.40;;;-2.20;99.90;;;;;;5025729;28;20045;-86
2021/12/23 01:27:01;;;;;;;86.20;32.28;;;-2.20;99.90;;;;;;5026563;28;20026;-86
2021/12/23 01:29:27;;;;;;;82.20;32.60;;;-2.20;99.90;;;;;;5027271;28;20160;-86
2021/12/23 01:31:53;;;;;;;86.63;33.28;;;-2.20;99.90;;;;;;5025816;28;20026;-87
2021/12/23 01:34:19;;;;;;;88.18;34.25;;;-2.20;99.90;;;;;;5024846;28;20022;-89
2021/12/23 01:36:45;;;;;;;85.95;34.22;;;-2.20;99.90;;;;;;5005450;28;20026;-87
2021/12/23 01:39:13;;;;;;;84.82;34.80;;;-2.20;99.90;;;;;;5006783;28;20029;-86
2021/12/23 01:41:40;;;;;;;81.05;31.75;;;-2.20;99.90;;;;;;5005969;28;20022;-88
2021/12/23 01:44:06;;;;;;;100.00;36.67;;;-2.30;99.90;;;;;;5008675;28;20030;-88
2021/12/23 01:46:32;;;;;;;84.25;34.55;;;-2.30;99.90;;;;;;5026396;28;20057;-85
2021/12/23 01:48:58;;;;;;;86.45;34.70;;;-2.30;99.90;;;;;;5035524;28;20097;-86
2021/12/23 01:51:24;;;;;;;82.55;35.03;;;-2.30;99.90;;;;;;5032340;28;20010;-87
2021/12/23 01:53:50;;;;;;;87.45;34.42;;;-2.40;99.90;;;;;;5026935;28;20114;-88
2021/12/23 01:56:17;;;;;;;93.18;34.63;;;-2.40;99.90;;;;;;5036361;23;20042;-84
2021/12/23 01:58:44;;;;;;;91.68;35.80;;;-2.30;99.90;;;;;;5016214;28;20058;-83
2021/12/23 02:01:10;;;;;;;87.00;35.92;;;-2.40;99.90;;;;;;5016265;28;20128;-85
2021/12/23 02:03:38;;;;;;;85.30;34.20;;;-2.40;99.90;;;;;;5016236;28;20073;-84
2021/12/23 02:06:04;;;;;;;80.07;34.05;;;-2.30;99.90;;;;;;5015903;28;20050;-84
2021/12/23 02:08:31;;;;;;;79.88;33.05;;;-2.30;99.90;;;;;;5016889;28;20043;-84
2021/12/23 02:10:58;;;;;;;91.47;36.33;;;-2.40;99.90;;;;;;5015874;28;20023;-82
2021/12/23 02:13:24;;;;;;;82.57;35.45;;;-2.30;99.90;;;;;;5015156;28;20030;-84
2021/12/23 02:15:50;;;;;;;85.30;33.85;;;-2.30;99.90;;;;;;5015401;28;20073;-83
2021/12/23 02:18:16;;;;;;;87.45;34.53;;;-2.30;99.90;;;;;;5016471;28;20039;-84
2021/12/23 02:20:42;;;;;;;84.00;34.55;;;-2.30;99.90;;;;;;5015849;28;20034;-84
2021/12/23 02:23:10;;;;;;;83.70;34.25;;;-2.40;99.90;;;;;;5011869;28;20033;-85
2021/12/23 02:25:36;;;;;;;93.93;34.72;;;-2.40;99.90;;;;;;5004190;28;20030;-85
2021/12/23 02:28:07;;;;;;;81.40;32.85;;;-2.40;99.90;;;;;;5007998;28;20166;-84
2021/12/23 02:30:37;;;;;;;89.65;35.22;;;-2.40;99.90;;;;;;5003078;28;20077;-85
2021/12/23 02:33:03;;;;;;;82.25;34.17;;;-2.40;99.90;;;;;;5004977;28;20030;-85
2021/12/23 02:35:29;;;;;;;88.10;34.58;;;-2.40;99.90;;;;;;4987512;28;20147;-85
2021/12/23 02:37:55;;;;;;;88.88;35.10;;;-2.40;99.90;;;;;;5003432;28;20030;-85
2021/12/23 02:40:27;;;;;;;87.20;34.50;;;-2.40;99.90;;;;;;5004530;28;20061;-85
2021/12/23 02:42:54;;;;;;;84.18;34.22;;;-2.40;99.90;;;;;;5011136;28;20038;-84
2021/12/23 02:45:20;;;;;;;89.85;35.30;;;-2.30;99.90;;;;;;5027293;28;20046;-84
2021/12/23 02:47:46;;;;;;;84.55;34.45;;;-2.40;99.90;;;;;;5005167;28;20038;-85
2021/12/23 02:50:12;;;;;;;89.45;34.33;;;-2.30;99.90;;;;;;5016567;28;20370;-84
2021/12/23 02:52:37;;;;;;;88.10;34.53;;;-2.30;99.90;;;;;;5000816;28;20546;-85
2021/12/23 02:55:04;;;;;;;82.45;35.35;;;-2.30;99.90;;;;;;4999972;28;20014;-86
2021/12/23 02:57:31;;;;;;;84.55;33.95;;;-2.30;99.90;;;;;;5000096;28;20482;-84
2021/12/23 02:59:57;;;;;;;83.10;34.60;;;-2.30;99.90;;;;;;4999795;28;20042;-86
2021/12/23 03:02:23;;;;;;;84.55;33.92;;;-2.30;99.90;;;;;;5006397;28;20068;-84
2021/12/23 03:04:48;;;;;;;88.55;34.28;;;-2.20;99.90;;;;;;5016644;28;20034;-85
2021/12/23 03:07:15;;;;;;;86.68;33.67;;;-2.20;99.90;;;;;;5021591;28;20030;-84
2021/12/23 03:09:45;;;;;;;80.82;32.35;;;-2.20;99.90;;;;;;5014183;28;20027;-85
2021/12/23 03:12:11;;;;;;;81.25;33.40;;;-2.10;99.90;;;;;;5015169;28;20022;-85
2021/12/23 03:14:37;;;;;;;81.95;33.63;;;-2.10;99.90;;;;;;5019827;28;20026;-83
2021/12/23 03:17:03;;;;;;;83.65;33.95;;;-2.10;99.90;;;;;;5008571;28;20161;-85
2021/12/23 03:19:29;;;;;;;85.93;32.42;;;-2.00;99.90;;;;;;5015886;28;20034;-84
2021/12/23 03:21:55;;;;;;;81.40;32.97;;;-2.00;99.90;;;;;;5002188;28;20106;-84
2021/12/23 03:24:21;;;;;;;81.13;31.67;;;-2.00;99.90;;;;;;5004064;28;20044;-85
2021/12/23 03:26:47;;;;;;;73.68;31.85;;;-2.00;99.90;;;;;;5004257;28;20038;-86
2021/12/23 03:29:14;;;;;;;71.85;30.45;;;-1.90;99.90;;;;;;5006581;28;20074;-85
2021/12/23 03:31:40;;;;;;;77.90;32.70;;;-1.90;99.90;;;;;;5004545;28;20113;-85
2021/12/23 03:34:06;;;;;;;80.85;32.33;;;-1.90;99.90;;;;;;5004645;28;20018;-85
2021/12/23 03:36:32;;;;;;;82.47;33.00;;;-1.90;99.90;;;;;;5002402;28;20038;-86
2021/12/23 03:38:58;;;;;;;77.40;32.60;;;-1.90;99.90;;;;;;5006237;28;20030;-85
2021/12/23 03:41:24;;;;;;;75.50;31.73;;;-1.90;99.90;;;;;;5004157;28;20050;-87
2021/12/23 03:43:49;;;;;;;82.63;31.67;;;-1.90;99.90;;;;;;5002573;28;20027;-85
2021/12/23 03:46:15;;;;;;;74.30;30.77;;;-1.90;99.90;;;;;;5001876;28;20081;-85
2021/12/23 03:48:41;;;;;;;73.45;31.63;;;-1.90;99.90;;;;;;5001585;28;20497;-86
2021/12/23 03:51:07;;;;;;;80.70;30.92;;;-1.80;99.90;;;;;;5001215;28;20030;-83
2021/12/23 03:53:33;;;;;;;80.22;32.30;;;-1.70;99.90;;;;;;5009095;28;20018;-85
2021/12/23 03:55:59;;;;;;;74.93;30.83;;;-1.80;99.90;;;;;;5010727;28;20039;-85
2021/12/23 03:58:25;;;;;;;72.70;31.42;;;-1.80;99.90;;;;;;5002290;28;20037;-84
2021/12/23 04:00:51;;;;;;;71.15;30.00;;;-1.80;99.90;;;;;;5003089;28;20030;-85
2021/12/23 04:03:17;;;;;;;79.03;31.70;;;-1.80;99.90;;;;;;5017066;28;20026;-83
2021/12/23 04:05:43;;;;;;;74.47;29.67;;;-1.80;99.90;;;;;;5019916;28;20061;-82
2021/12/23 04:08:09;;;;;;;76.32;31.00;;;-1.80;99.90;;;;;;5008080;28;20085;-85
2021/12/23 04:10:36;;;;;;;80.45;30.13;;;-1.90;99.90;;;;;;5030839;28;20053;-84
2021/12/23 04:13:01;;;;;;;73.80;30.20;;;-1.80;99.90;;;;;;5018556;28;20089;-85
2021/12/23 04:15:27;;;;;;;74.53;30.58;;;-1.80;99.90;;;;;;5006575;28;20029;-84
2021/12/23 04:17:53;;;;;;;72.47;30.33;;;-1.80;99.90;;;;;;5005960;28;20439;-85
2021/12/23 04:20:23;;;;;;;72.80;29.20;;;-1.80;99.90;;;;;;5003684;28;20030;-85
2021/12/23 04:22:51;;;;;;;71.60;29.77;;;-1.80;99.90;;;;;;5002211;28;20486;-85
2021/12/23 04:25:19;;;;;;;77.22;29.70;;;-1.80;99.90;;;;;;5002936;28;20035;-86
2021/12/23 04:27:46;;;;;;;74.00;28.45;;;-1.80;99.90;;;;;;5006517;28;20382;-83
2021/12/23 04:30:13;;;;;;;76.57;30.00;;;-1.80;99.90;;;;;;5015081;28;20032;-83
2021/12/23 04:32:39;;;;;;;69.85;29.42;;;-1.80;99.90;;;;;;5015628;28;20065;-86
2021/12/23 04:35:05;;;;;;;73.53;30.90;;;-1.80;99.90;;;;;;5014393;28;20046;-85
2021/12/23 04:37:31;;;;;;;71.55;29.95;;;-1.80;99.90;;;;;;5004225;28;20026;-84
2021/12/23 04:39:57;;;;;;;71.90;28.90;;;-1.80;99.90;;;;;;5003913;28;20540;-85
2021/12/23 04:42:23;;;;;;;76.38;31.25;;;-1.70;99.90;;;;;;5012184;28;20031;-86
2021/12/23 04:44:48;;;;;;;72.95;29.75;;;-1.70;99.90;;;;;;5012848;28;20065;-85
2021/12/23 04:47:14;;;;;;;72.32;30.60;;;-1.70;99.90;;;;;;5011930;28;20121;-82
2021/12/23 04:49:40;;;;;;;77.65;30.15;;;-1.70;99.90;;;;;;5013390;28;20022;-85
2021/12/23 04:52:06;;;;;;;74.53;29.75;;;-1.70;99.90;;;;;;5012743;28;20022;-85
2021/12/23 04:54:32;;;;;;;72.38;30.70;;;-1.70;99.90;;;;;;5017951;28;20087;-85
2021/12/23 04:56:58;;;;;;;74.82;30.33;;;-1.70;99.90;;;;;;5011795;28;20038;-86
2021/12/23 04:59:24;;;;;;;68.30;28.75;;;-1.70;99.90;;;;;;5010514;28;20479;-84
2021/12/23 05:01:51;;;;;;;73.80;29.98;;;-1.60;99.90;;;;;;5016789;28;20058;-84
2021/12/23 05:04:17;;;;;;;70.57;28.85;;;-1.70;99.90;;;;;;5009146;28;20030;-87
2021/12/23 05:06:43;;;;;;;68.15;27.85;;;-1.70;99.90;;;;;;5015236;28;20536;-85
2021/12/23 05:09:09;;;;;;;72.70;30.63;;;-1.70;99.90;;;;;;5003449;28;20027;-85
2021/12/23 05:11:35;;;;;;;77.57;29.63;;;-1.70;99.90;;;;;;5003027;28;20466;-85
2021/12/23 05:14:00;;;;;;;68.75;29.48;;;-1.70;99.90;;;;;;5002055;28;20050;-86
2021/12/23 05:16:26;;;;;;;69.82;29.85;;;-1.70;99.90;;;;;;5002959;28;20034;-85
2021/12/23 05:18:52;;;;;;;67.75;28.50;;;-1.70;99.90;;;;;;5002620;28;20053;-83
2021/12/23 05:21:18;;;;;;;70.22;29.10;;;-1.70;99.90;;;;;;5004003;28;20369;-85
2021/12/23 05:23:43;;;;;;;71.68;28.17;;;-1.70;99.90;;;;;;5003469;28;20046;-85
2021/12/23 05:26:09;;;;;;;74.80;29.17;;;-1.70;99.90;;;;;;5006086;28;20041;-85
2021/12/23 05:28:36;;;;;;;76.57;29.00;;;-1.70;99.90;;;;;;5004131;28;20113;-86
2021/12/23 05:31:03;;;;;;;66.65;27.42;;;-1.70;99.90;;;;;;5003227;28;20042;-85
2021/12/23 05:33:29;;;;;;;71.38;30.35;;;-1.60;99.90;;;;;;5012885;28;20030;-83
2021/12/23 05:35:55;;;;;;;68.78;28.80;;;-1.60;99.90;;;;;;5017920;28;20049;-84
2021/12/23 05:38:22;;;;;;;70.18;29.38;;;-1.70;99.90;;;;;;5016859;28;20082;-83
2021/12/23 05:40:48;;;;;;;63.22;28.63;;;-1.70;99.90;;;;;;5016832;28;20026;-83
2021/12/23 05:43:14;;;;;;;64.55;28.67;;;-1.70;99.90;;;;;;5016194;28;20045;-84
2021/12/23 05:45:40;;;;;;;64.70;27.50;;;-1.80;99.90;;;;;;5025550;28;20090;-85
2021/12/23 05:48:07;;;;;;;64.50;27.08;;;-1.80;99.90;;;;;;5021159;28;20039;-83
2021/12/23 05:50:33;;;;;;;69.88;27.75;;;-1.80;99.90;;;;;;5004950;28;20022;-86
2021/12/23 05:52:59;;;;;;;64.70;28.63;;;-1.80;99.90;;;;;;5015225;28;20018;-84
2021/12/23 05:55:26;;;;;;;68.85;27.50;;;-1.80;99.90;;;;;;5017582;28;20006;-84
2021/12/23 05:57:52;;;;;;;74.85;28.10;;;-1.90;99.90;;;;;;5007734;28;20041;-85
2021/12/23 06:00:22;;;;;;;68.60;29.08;;;-1.90;99.90;;;;;;5018101;28;20078;-84
2021/12/23 06:02:48;;;;;;;66.95;28.38;;;-1.80;99.90;;;;;;5015492;28;20030;-82
2021/12/23 06:05:14;;;;;;;66.82;29.48;;;-1.80;99.90;;;;;;5014917;28;20099;-83
2021/12/23 06:07:41;;;;;;;68.05;27.00;;;-1.90;99.90;;;;;;5010936;28;20048;-85
2021/12/23 06:10:08;;;;;;;71.97;26.95;;;-1.90;99.90;;;;;;5007794;28;20022;-84
2021/12/23 06:12:35;;;;;;;76.05;29.13;;;-2.00;99.90;;;;;;5006213;28;20030;-84
2021/12/23 06:15:00;;;;;;;69.70;26.75;;;-1.90;99.90;;;;;;5006351;28;20027;-85
2021/12/23 06:17:28;;;;;;;65.38;26.70;;;-1.90;99.90;;;;;;5009850;28;20115;-84
2021/12/23 06:19:54;;;;;;;64.28;25.98;;;-1.90;99.90;;;;;;5007556;28;20027;-85
2021/12/23 06:22:20;;;;;;;70.50;26.55;;;-1.90;99.90;;;;;;5006238;28;20081;-85
2021/12/23 06:24:47;;;;;;;69.53;26.42;;;-1.90;99.90;;;;;;5008410;28;20027;-85
2021/12/23 06:27:18;;;;;;;79.13;29.50;;;-2.00;99.90;;;;;;5009239;28;20475;-84
2021/12/23 06:29:44;;;;;;;73.03;26.95;;;-2.00;99.90;;;;;;5008233;28;20033;-87
2021/12/23 06:32:11;;;;;;;62.00;25.85;;;-2.00;99.90;;;;;;5010655;28;20023;-85
2021/12/23 06:34:36;;;;;;;64.78;27.52;;;-2.00;99.90;;;;;;5012185;28;20054;-85
2021/12/23 06:37:04;;;;;;;63.30;26.25;;;-1.90;99.90;;;;;;5013250;28;20034;-86
2021/12/23 06:39:34;;;;;;;66.32;26.08;;;-1.90;99.90;;;;;;5011939;28;20034;-87
2021/12/23 06:42:00;;;;;;;61.60;25.95;;;-2.00;99.90;;;;;;5013281;28;20065;-85
2021/12/23 06:44:27;;;;;;;64.70;26.55;;;-2.00;99.90;;;;;;5011203;28;20030;-84
2021/12/23 06:46:53;;;;;;;64.47;26.33;;;-1.90;99.90;;;;;;5012967;28;20475;-85
2021/12/23 06:49:19;;;;;;;69.82;27.77;;;-1.90;99.90;;;;;;5014979;28;20041;-85
2021/12/23 06:51:45;;;;;;;67.05;26.38;;;-2.00;99.90;;;;;;5012665;28;20093;-84
2021/12/23 06:54:14;;;;;;;62.28;27.58;;;-2.10;99.90;;;;;;5017231;28;20069;-87
2021/12/23 06:56:40;;;;;;;60.63;25.75;;;-2.00;99.90;;;;;;5010692;28;20057;-84
2021/12/23 06:59:06;;;;;;;60.53;24.98;;;-2.00;99.90;;;;;;5007488;28;20026;-86
2021/12/23 07:01:32;;;;;;;65.35;25.75;;;-2.00;99.90;;;;;;4990722;28;20061;-85
2021/12/23 07:04:14;;;;;;;66.38;27.10;;;-2.00;99.90;;;;;;5024237;28;20049;-86
2021/12/23 07:06:56;;;;;;;58.03;26.55;;;-2.00;99.90;;;;;;5008101;28;20058;-85
2021/12/23 07:09:22;;;;;;;64.07;25.75;;;-2.00;99.90;;;;;;5007845;28;20053;-86
2021/12/23 07:11:48;;;;;;;62.60;26.85;;;-2.00;99.90;;;;;;5033816;28;20086;-84
2021/12/23 07:14:13;;;;;;;71.25;27.10;;;-2.00;99.90;;;;;;5035036;28;20086;-85
2021/12/23 07:16:41;;;;;;;62.05;27.42;;;-2.00;99.90;;;;;;5009637;28;20030;-85
2021/12/23 07:19:07;;;;;;;63.53;25.10;;;-2.00;99.90;;;;;;5013117;28;20025;-85
2021/12/23 07:21:33;;;;;;;67.20;27.45;;;-1.90;99.90;;;;;;5016340;28;20050;-86
2021/12/23 07:24:00;;;;;;;62.28;27.60;;;-1.80;99.90;;;;;;5023424;28;20026;-85
2021/12/23 07:26:26;;;;;;;57.13;25.52;;;-1.80;99.90;;;;;;5005887;28;20026;-87
2021/12/23 07:28:52;;;;;;;66.68;25.63;;;-1.80;99.90;;;;;;5011593;28;20031;-85
2021/12/23 07:31:18;;;;;;;65.40;25.60;;;-1.80;99.90;;;;;;5007817;28;20022;-86
2021/12/23 07:33:44;;;;;;;68.45;26.15;;;-1.70;99.90;;;;;;5024013;28;20181;-87
2021/12/23 07:36:10;;;;;;;62.35;25.98;;;-1.70;99.90;;;;;;5006842;28;20023;-85
2021/12/23 07:38:36;;;;;;;62.47;26.20;;;-1.70;99.90;;;;;;5009926;28;20326;-87
2021/12/23 07:41:02;;;;;;;61.92;24.80;;;-1.70;99.90;;;;;;5007665;28;20030;-84
2021/12/23 07:43:43;;;;;;;61.00;26.95;;;-1.80;99.90;;;;;;5006643;28;20035;-85
2021/12/23 07:46:09;;;;;;;63.53;25.85;;;-1.80;99.90;;;;;;5007568;28;20034;-85
2021/12/23 07:48:35;;;;;;;62.90;25.73;;;-1.70;99.90;;;;;;5007846;28;20022;-86
2021/12/23 07:51:03;;;;;;;58.42;24.98;;;-1.70;99.90;;;;;;5006707;28;20034;-85
2021/12/23 07:53:30;;;;;;;55.47;24.45;;;-1.60;99.90;;;;;;5013302;28;20078;-85
2021/12/23 07:55:56;;;;;;;63.38;25.92;;;-1.50;99.90;;;;;;5038860;23;20054;-86
2021/12/23 07:58:22;;;;;;;56.55;24.08;;;-1.60;99.90;;;;;;5006273;28;20043;-87
2021/12/23 08:00:47;;;;;;;60.40;24.92;;;-1.50;99.90;;;;;;5014985;28;20033;-82
2021/12/23 08:03:13;;;;;;;61.58;24.77;;;-1.50;99.90;;;;;;5013444;28;20026;-86
2021/12/23 08:05:41;;;;;;;67.20;26.13;;;-1.50;99.90;;;;;;5005218;28;20022;-84
2021/12/23 08:08:07;;;;;;;53.17;24.88;;;-1.50;99.90;;;;;;5007077;28;20089;-84
2021/12/23 08:10:33;;;;;;;58.88;24.58;;;-1.50;99.90;;;;;;5005574;28;20041;-83
2021/12/23 08:13:01;;;;;;;54.65;24.50;;;-1.50;99.90;;;;;;5005361;28;20563;-84
2021/12/23 08:15:27;;;;;;;55.90;24.17;;;-1.50;99.90;;;;;;5004605;28;20089;-86
2021/12/23 08:17:53;;;;;;;57.63;24.30;;;-1.40;99.90;;;;;;5006267;28;20038;-87
2021/12/23 08:20:19;;;;;;;62.75;25.85;;;-1.40;99.90;;;;;;5005681;28;20521;-86
2021/12/23 08:22:45;;;;;;;54.35;24.20;;;-1.50;99.90;;;;;;5004074;28;20104;-87
2021/12/23 08:25:12;;;;;;;55.80;24.23;;;-1.40;99.90;;;;;;5003102;28;20034;-86
2021/12/23 08:27:39;;;;;;;56.15;23.52;;;-1.30;99.90;;;;;;5004426;28;20045;-86
2021/12/23 08:30:07;;;;;;;57.25;24.95;;;-1.20;99.90;;;;;;5003312;28;20026;-87
2021/12/23 08:32:33;;;;;;;62.53;24.55;;;-1.20;99.90;;;;;;5003893;28;20104;-85
2021/12/23 08:34:59;;;;;;;56.05;25.27;;;-1.10;99.90;;;;;;5004779;28;20066;-87
2021/12/23 08:37:24;;;;;;;60.10;25.73;;;-1.20;99.90;;;;;;5003985;28;20030;-87
2021/12/23 08:39:51;;;;;;;62.38;25.52;;;-1.10;99.90;;;;;;5004888;28;20030;-85
2021/12/23 08:42:17;;;;;;;60.08;25.05;;;-1.10;99.90;;;;;;5013531;28;20105;-82
2021/12/23 08:44:43;;;;;;;68.45;25.50;;;-1.10;99.90;;;;;;5016513;28;20058;-86
2021/12/23 08:47:11;;;;;;;54.45;24.73;;;-1.00;99.90;;;;;;5003292;28;20027;-86
2021/12/23 08:49:37;;;;;;;61.75;26.55;;;-1.10;99.90;;;;;;5006201;28;20031;-86
2021/12/23 08:52:04;;;;;;;61.40;24.77;;;-1.10;99.90;;;;;;5007331;28;20397;-85
2021/12/23 08:54:29;;;;;;;68.38;25.23;;;-1.00;99.90;;;;;;5005078;28;20031;-86
2021/12/23 08:56:56;;;;;;;52.78;24.33;;;-1.10;99.90;;;;;;5007389;28;20069;-85
2021/12/23 08:59:22;;;;;;;55.78;24.90;;;-1.00;99.90;;;;;;5009105;28;20036;-87
2021/12/23 09:01:47;;;;;;;58.53;25.05;;;-1.00;99.90;;;;;;5008049;28;20046;-86
2021/12/23 09:04:13;;;;;;;56.05;25.13;;;-0.90;99.90;;;;;;5009330;28;20113;-84
2021/12/23 09:06:40;;;;;;;62.90;26.15;;;-0.90;99.90;;;;;;5007342;28;20030;-84
2021/12/23 09:09:07;;;;;;;59.63;24.52;;;-1.00;99.90;;;;;;5006389;28;20022;-86
2021/12/23 09:11:33;;;;;;;68.60;26.05;;;-0.90;99.90;;;;;;5007755;28;20033;-82
2021/12/23 09:14:00;;;;;;;59.95;25.05;;;-0.80;99.90;;;;;;5009658;28;20038;-84
2021/12/23 09:16:26;;;;;;;60.80;25.58;;;-0.90;99.90;;;;;;5008664;28;20053;-86
2021/12/23 09:18:51;;;;;;;58.63;25.80;;;-0.90;99.90;;;;;;5007406;28;20026;-83
2021/12/23 09:21:17;;;;;;;56.58;23.52;;;-0.80;99.90;;;;;;5006393;28;20081;-85
2021/12/23 09:23:44;;;;;;;64.70;25.00;;;-0.80;99.90;;;;;;5007084;28;20030;-85
2021/12/23 09:26:10;;;;;;;61.13;25.73;;;-0.80;99.90;;;;;;5014782;28;20064;-85
2021/12/23 09:29:00;;;;;;;59.53;25.35;;;-0.70;99.90;;;;;;5010947;28;20037;-86
2021/12/23 09:34:11;;;;;;;66.03;26.25;;;-0.60;99.90;;;;;;5012795;28;20122;-84
2021/12/23 09:36:39;;;;;;;58.85;25.63;;;-0.50;99.90;;;;;;5011854;28;20093;-84
2021/12/23 09:39:08;;;;;;;69.53;27.10;;;-0.60;99.90;;;;;;5008113;28;20040;-88
2021/12/23 09:41:40;;;;;;;56.67;24.40;;;-0.60;99.90;;;;;;5008647;28;20022;-85
2021/12/23 09:44:08;;;;;;;56.50;25.90;;;-0.60;99.90;;;;;;5007688;28;20066;-83
2021/12/23 09:46:34;;;;;;;59.40;24.95;;;-0.50;99.90;;;;;;5003030;28;20102;-85
2021/12/23 09:49:02;;;;;;;61.90;25.20;;;-0.50;99.90;;;;;;5009856;28;20041;-84
2021/12/23 09:51:29;;;;;;;63.58;26.48;;;-0.50;99.90;;;;;;5015544;28;20045;-86
2021/12/23 09:53:58;;;;;;;66.25;27.60;;;-0.50;99.90;;;;;;5011223;28;20257;-85
2021/12/23 09:56:25;;;;;;;61.75;27.42;;;-0.40;99.90;;;;;;5004191;28;20036;-86
2021/12/23 09:58:52;;;;;;;67.50;25.38;;;-0.40;99.90;;;;;;5003221;28;20030;-87
2021/12/23 10:01:18;;;;;;;71.18;26.13;;;-0.30;99.90;;;;;;5002403;28;20061;-86
2021/12/23 10:03:44;;;;;;;66.28;26.85;;;-0.20;99.90;;;;;;5003571;28;20437;-84
2021/12/23 10:06:10;;;;;;;55.30;25.10;;;-0.20;99.90;;;;;;5008907;28;20018;-83
2021/12/23 10:08:38;;;;;;;61.03;24.17;;;-0.10;99.90;;;;;;5007826;28;20088;-85
2021/12/23 10:11:23;;;;;;;61.50;26.67;;;0.10;99.90;;;;;;5001397;28;20041;-85
2021/12/23 10:38:38;;;;;;;58.17;25.38;;;0.40;99.90;;;;;;5011042;28;20030;-87
2021/12/23 10:41:18;;;;;;;57.63;24.77;;;0.40;99.90;;;;;;5009564;28;20076;-86
2021/12/23 10:43:48;;;;;;;62.65;25.90;;;0.50;99.90;;;;;;5011103;28;20120;-86
2021/12/23 10:46:24;;;;;;;63.60;24.92;;;0.60;99.90;;;;;;5010738;28;20030;-85
2021/12/23 11:00:19;;;;;;;78.60;32.28;;;0.60;99.90;;;;;;5023072;28;20031;-83
2021/12/23 11:03:00;;;;;;;58.67;25.48;;;0.60;99.90;;;;;;5021254;28;20018;-82
2021/12/23 11:05:31;;;;;;;62.78;25.90;;;0.70;99.90;;;;;;5020854;28;20038;-87
2021/12/23 11:43:50;;;;;;;56.50;24.17;;;0.80;99.90;;;;;;5003552;28;20030;-86
2021/12/23 11:46:27;;;;;;;51.25;22.45;;;0.80;99.90;;;;;;5006012;28;20392;-87
2021/12/23 11:48:56;;;;;;;55.05;24.40;;;0.90;99.90;;;;;;5009933;28;20034;-86
2021/12/23 11:52:01;;;;;;;57.17;24.92;;;0.90;99.90;;;;;;5008274;28;20023;-85
2021/12/23 11:54:34;;;;;;;55.55;25.02;;;1.00;99.90;;;;;;5005418;28;20035;-87
2021/12/23 11:57:18;;;;;;;58.05;24.00;;;1.10;99.90;;;;;;5005164;28;20038;-87
2021/12/23 12:00:15;;;;;;;60.90;25.15;;;1.20;99.90;;;;;;5005360;28;20474;-89
2021/12/23 12:02:42;;;;;;;56.40;24.43;;;1.40;99.90;;;;;;5005319;28;20121;-90
2021/12/23 12:05:15;;;;;;;58.33;24.15;;;1.40;99.90;;;;;;5007023;28;20033;-87
2021/12/23 12:07:41;;;;;;;51.93;24.20;;;1.50;99.90;;;;;;5006888;28;20359;-88
2021/12/23 12:10:19;;;;;;;54.30;22.85;;;1.40;99.90;;;;;;5007133;28;20045;-88
2021/12/23 12:13:08;;;;;;;53.90;25.10;;;1.60;99.90;;;;;;5016515;28;20026;-89
2021/12/23 12:15:49;;;;;;;46.92;22.58;;;1.70;99.90;;;;;;5016141;28;20034;-87
2021/12/23 12:18:19;;;;;;;52.50;24.40;;;1.70;99.90;;;;;;4993847;28;20069;-90
2021/12/23 12:20:50;;;;;;;52.92;23.23;;;1.70;99.90;;;;;;5007088;28;20050;-87
2021/12/23 12:23:32;;;;;;;58.08;24.88;;;1.80;99.90;;;;;;5013598;28;20050;-90
2021/12/23 12:26:10;;;;;;;50.97;23.58;;;1.80;99.90;;;;;;5005843;28;20038;-87
2021/12/23 12:28:47;;;;;;;51.13;24.10;;;1.90;99.90;;;;;;5003252;28;20034;-88
2021/12/23 12:31:16;;;;;;;50.75;24.25;;;1.90;99.90;;;;;;5003156;28;20041;-88
2021/12/23 12:33:44;;;;;;;49.08;23.08;;;2.00;99.90;;;;;;5005968;28;20049;-89
2021/12/23 12:36:16;;;;;;;52.45;23.13;;;1.90;99.90;;;;;;5004085;28;20089;-88
2021/12/23 12:38:48;;;;;;;55.35;24.60;;;1.90;99.90;;;;;;5007005;28;20033;-88
2021/12/23 12:41:23;;;;;;;51.10;22.33;;;1.80;99.90;;;;;;5012274;28;20119;-88
2021/12/23 12:44:00;;;;;;;;;;;1.70;99.90;;;;;;5014221;28;20077;-88
2021/12/23 12:49:08;;;;;;;;;;;1.90;99.90;;;;;;5012307;28;20030;-89
2021/12/23 12:51:39;;;;;;;54.45;24.05;;;2.00;99.90;;;;;;5014037;28;19941;-88
2021/12/23 12:54:09;;;;;;;48.65;23.02;;;2.10;99.90;;;;;;5014843;28;20138;-89
2021/12/23 12:56:46;;;;;;;49.33;22.23;;;2.10;99.90;;;;;;5012767;28;20084;-87
2021/12/23 12:59:13;;;;;;;49.20;22.65;;;2.10;99.90;;;;;;5012687;28;20061;-89
2021/12/23 13:01:46;;;;;;;48.35;21.00;;;2.00;99.90;;;;;;5013665;28;20014;-89
2021/12/23 13:04:36;;;;;;;54.47;20.73;;;1.90;99.90;;;;;;5013031;28;20030;-88
2021/12/23 13:07:22;;;;;;;53.47;23.52;;;1.80;99.90;;;;;;5012377;28;20383;-89
2021/12/23 13:10:16;;;;;;;51.25;23.33;;;1.60;99.90;;;;;;5013094;28;20073;-88
2021/12/23 13:13:11;;;;;;;48.97;23.92;;;1.50;99.90;;;;;;4994964;28;20030;-88
2021/12/23 13:15:59;;;;;;;51.65;22.45;;;1.50;99.90;;;;;;5015347;28;20094;-90
2021/12/23 13:18:29;;;;;;;49.38;22.38;;;1.60;99.90;;;;;;5013520;28;20019;-88
2021/12/23 13:21:05;;;;;;;48.17;22.50;;;1.50;99.90;;;;;;5014750;28;20030;-88
2021/12/23 13:23:36;;;;;;;51.20;22.65;;;1.60;99.90;;;;;;5017152;28;20135;-90
2021/12/23 13:26:11;;;;;;;48.08;23.08;;;1.60;99.90;;;;;;5017590;28;20109;-90
2021/12/23 13:28:42;;;;;;;55.45;24.08;;;1.70;99.90;;;;;;5017880;28;20046;-88
2021/12/23 13:31:21;;;;;;;51.50;23.73;;;1.60;99.90;;;;;;5017028;28;20092;-88
2021/12/23 13:33:56;;;;;;;58.47;23.38;;;1.50;99.90;;;;;;5015962;28;20038;-88
2021/12/23 13:36:28;;;;;;;53.15;23.02;;;1.40;99.90;;;;;;5011367;28;20034;-87
2021/12/23 13:39:28;;;;;;;52.97;22.48;;;1.40;99.90;;;;;;5011315;28;20033;-88
2021/12/23 13:41:59;;;;;;;58.13;24.77;;;1.40;99.90;;;;;;5009917;28;20022;-89
2021/12/23 13:44:26;;;;;;;49.33;23.50;;;1.40;99.90;;;;;;5010199;28;20037;-87
2021/12/23 13:46:55;;;;;;;50.70;23.83;;;1.30;99.90;;;;;;4996905;28;20081;-88
2021/12/23 13:49:31;;;;;;;49.53;22.85;;;1.40;99.90;;;;;;5010313;28;20035;-89
2021/12/23 13:51:57;;;;;;;51.70;23.02;;;1.30;99.90;;;;;;5007760;28;20128;-87
2021/12/23 13:54:33;;;;;;;54.05;24.60;;;1.20;99.90;;;;;;5007507;28;20023;-88
2021/12/23 13:56:59;;;;;;;53.55;23.60;;;1.20;99.90;;;;;;5018786;23;20046;-84
2021/12/23 13:59:27;;;;;;;46.95;23.08;;;1.10;99.90;;;;;;5008371;28;20086;-84
2021/12/23 14:02:14;;;;;;;49.60;22.35;;;1.00;99.90;;;;;;4994125;28;20046;-84